sensor_id;sensor_type;location;lat;lon;timestamp;pressure;altitude;pressure_sealevel;temperature;humidity
31357;BME280;60001;48.404;11.738;2023-05-20T00:00:01;96331.91;;;14.49;69.95
31357;BME280;60001;48.404;11.738;2023-05-20T00:01:32;96343.06;;;14.51;70.51
31357;BME280;60001;48.404;11.738;2023-05-20T00:03:05;96337.22;;;14.44;70.48
31357;BME280;60001;48.404;11.738;2023-05-20T00:04:36;96330.94;;;14.24;71.22
31357;BME280;60001;48.404;11.738;2023-05-20T00:06:07;96329.06;;;14.30;71.22
31357;BME280;60001;48.404;11.738;2023-05-20T00:07:39;96331.69;;;14.40;71.39
31357;BME280;60001;48.404;11.738;2023-05-20T00:09:10;96334.34;;;14.40;70.73
31357;BME280;60001;48.404;11.738;2023-05-20T00:10:43;96330.91;;;14.35;71.41
31357;BME280;60001;48.404;11.738;2023-05-20T00:12:15;96336.75;;;14.32;71.63
31357;BME280;60001;48.404;11.738;2023-05-20T00:13:46;96332.25;;;14.32;71.18
31357;BME280;60001;48.404;11.738;2023-05-20T00:15:18;96322.47;;;14.27;71.76
31357;BME280;60001;48.404;11.738;2023-05-20T00:16:49;96320.09;;;14.26;71.27
31357;BME280;60001;48.404;11.738;2023-05-20T00:18:21;96323.25;;;14.23;72.07
31357;BME280;60001;48.404;11.738;2023-05-20T00:19:53;96318.72;;;14.29;71.74
31357;BME280;60001;48.404;11.738;2023-05-20T00:21:24;96317.16;;;14.27;71.56
31357;BME280;60001;48.404;11.738;2023-05-20T00:22:56;96320.59;;;14.28;71.90
31357;BME280;60001;48.404;11.738;2023-05-20T00:24:27;96319.81;;;14.22;72.17
31357;BME280;60001;48.404;11.738;2023-05-20T00:26:00;96314.00;;;14.15;72.07
31357;BME280;60001;48.404;11.738;2023-05-20T00:27:31;96304.69;;;14.18;72.04
31357;BME280;60001;48.404;11.738;2023-05-20T00:29:02;96304.44;;;14.19;71.79
31357;BME280;60001;48.404;11.738;2023-05-20T00:30:34;96312.16;;;14.16;72.10
31357;BME280;60001;48.404;11.738;2023-05-20T00:32:06;96311.84;;;14.22;72.70
31357;BME280;60001;48.404;11.738;2023-05-20T00:33:38;96306.53;;;14.22;72.07
31357;BME280;60001;48.404;11.738;2023-05-20T00:35:10;96302.84;;;14.18;72.45
31357;BME280;60001;48.404;11.738;2023-05-20T00:36:44;96303.09;;;14.22;72.40
31357;BME280;60001;48.404;11.738;2023-05-20T00:38:16;96303.38;;;14.20;72.31
31357;BME280;60001;48.404;11.738;2023-05-20T00:39:47;96306.00;;;14.25;72.28
31357;BME280;60001;48.404;11.738;2023-05-20T00:41:20;96312.94;;;14.21;72.65
31357;BME280;60001;48.404;11.738;2023-05-20T00:42:51;96317.16;;;14.22;72.51
31357;BME280;60001;48.404;11.738;2023-05-20T00:44:22;96307.34;;;14.18;72.54
31357;BME280;60001;48.404;11.738;2023-05-20T00:45:56;96310.56;;;14.15;73.24
31357;BME280;60001;48.404;11.738;2023-05-20T00:47:31;96306.59;;;14.12;73.06
31357;BME280;60001;48.404;11.738;2023-05-20T00:49:03;96307.94;;;14.10;73.09
31357;BME280;60001;48.404;11.738;2023-05-20T00:50:35;96312.16;;;14.11;73.58
31357;BME280;60001;48.404;11.738;2023-05-20T00:52:07;96316.97;;;14.04;73.87
31357;BME280;60001;48.404;11.738;2023-05-20T00:53:39;96309.78;;;14.09;73.57
31357;BME280;60001;48.404;11.738;2023-05-20T00:55:11;96309.50;;;14.11;73.63
31357;BME280;60001;48.404;11.738;2023-05-20T00:56:46;96315.38;;;14.08;73.09
31357;BME280;60001;48.404;11.738;2023-05-20T00:58:17;96311.13;;;14.12;73.43
31357;BME280;60001;48.404;11.738;2023-05-20T00:59:49;96314.00;;;14.15;72.96
31357;BME280;60001;48.404;11.738;2023-05-20T01:01:19;96315.59;;;14.16;72.85
31357;BME280;60001;48.404;11.738;2023-05-20T01:02:52;96314.81;;;14.11;73.11
31357;BME280;60001;48.404;11.738;2023-05-20T01:04:25;96310.34;;;14.06;73.72
31357;BME280;60001;48.404;11.738;2023-05-20T01:05:57;96278.59;;;13.86;73.74
31357;BME280;60001;48.404;11.738;2023-05-20T01:07:28;96312.47;;;14.04;74.17
31357;BME280;60001;48.404;11.738;2023-05-20T01:09:00;96294.44;;;14.01;73.88
31357;BME280;60001;48.404;11.738;2023-05-20T01:10:33;96302.41;;;14.01;73.90
31357;BME280;60001;48.404;11.738;2023-05-20T01:12:14;96303.19;;;14.07;74.13
31357;BME280;60001;48.404;11.738;2023-05-20T01:13:52;96301.31;;;14.07;74.21
31357;BME280;60001;48.404;11.738;2023-05-20T01:15:26;96298.97;;;14.01;74.14
31357;BME280;60001;48.404;11.738;2023-05-20T01:17:01;96295.50;;;14.05;73.97
31357;BME280;60001;48.404;11.738;2023-05-20T01:18:41;96305.06;;;14.01;73.92
31357;BME280;60001;48.404;11.738;2023-05-20T01:20:14;96310.66;;;13.99;74.00
31357;BME280;60001;48.404;11.738;2023-05-20T01:21:47;96296.59;;;13.94;74.72
31357;BME280;60001;48.404;11.738;2023-05-20T01:23:20;96292.59;;;13.96;74.53
31357;BME280;60001;48.404;11.738;2023-05-20T01:24:52;96293.94;;;13.94;74.51
31357;BME280;60001;48.404;11.738;2023-05-20T01:26:24;96293.38;;;13.97;74.47
31357;BME280;60001;48.404;11.738;2023-05-20T01:27:56;96291.81;;;13.96;74.20
31357;BME280;60001;48.404;11.738;2023-05-20T01:29:28;96290.00;;;13.86;74.53
31357;BME280;60001;48.404;11.738;2023-05-20T01:31:04;96284.13;;;13.94;74.86
31357;BME280;60001;48.404;11.738;2023-05-20T01:32:41;96267.75;;;13.77;74.52
31357;BME280;60001;48.404;11.738;2023-05-20T01:34:13;96300.91;;;13.85;75.32
31357;BME280;60001;48.404;11.738;2023-05-20T01:35:46;96287.88;;;13.83;75.26
31357;BME280;60001;48.404;11.738;2023-05-20T01:37:19;96296.63;;;13.89;74.54
31357;BME280;60001;48.404;11.738;2023-05-20T01:38:54;96292.16;;;13.79;74.75
31357;BME280;60001;48.404;11.738;2023-05-20T01:40:27;96293.16;;;13.88;75.01
31357;BME280;60001;48.404;11.738;2023-05-20T01:42:00;96287.88;;;13.83;75.21
31357;BME280;60001;48.404;11.738;2023-05-20T01:43:33;96287.06;;;13.88;75.20
31357;BME280;60001;48.404;11.738;2023-05-20T01:45:07;96286.84;;;13.79;75.39
31357;BME280;60001;48.404;11.738;2023-05-20T01:46:39;96294.84;;;13.69;75.54
31357;BME280;60001;48.404;11.738;2023-05-20T01:48:13;96289.22;;;13.76;75.72
31357;BME280;60001;48.404;11.738;2023-05-20T01:49:46;96292.44;;;13.78;75.33
31357;BME280;60001;48.404;11.738;2023-05-20T01:51:18;96285.00;;;13.75;75.53
31357;BME280;60001;48.404;11.738;2023-05-20T01:52:50;96288.72;;;13.74;75.43
31357;BME280;60001;48.404;11.738;2023-05-20T01:54:24;96280.19;;;13.77;75.82
31357;BME280;60001;48.404;11.738;2023-05-20T01:55:55;96278.66;;;13.70;75.79
31357;BME280;60001;48.404;11.738;2023-05-20T01:57:27;96284.19;;;13.74;75.23
31357;BME280;60001;48.404;11.738;2023-05-20T01:58:58;96292.47;;;13.67;76.07
31357;BME280;60001;48.404;11.738;2023-05-20T02:00:31;96272.88;;;13.58;75.86
31357;BME280;60001;48.404;11.738;2023-05-20T02:02:02;96283.97;;;13.70;75.84
31357;BME280;60001;48.404;11.738;2023-05-20T02:03:34;96284.75;;;13.71;75.61
31357;BME280;60001;48.404;11.738;2023-05-20T02:05:06;96282.34;;;13.69;75.85
31357;BME280;60001;48.404;11.738;2023-05-20T02:06:37;96272.28;;;13.71;76.00
31357;BME280;60001;48.404;11.738;2023-05-20T02:08:09;96271.50;;;13.71;75.83
31357;BME280;60001;48.404;11.738;2023-05-20T02:09:43;96264.06;;;13.68;76.17
31357;BME280;60001;48.404;11.738;2023-05-20T02:11:13;96266.72;;;13.63;76.38
31357;BME280;60001;48.404;11.738;2023-05-20T02:12:45;96266.28;;;13.40;77.41
31357;BME280;60001;48.404;11.738;2023-05-20T02:14:18;96259.09;;;13.41;77.26
31357;BME280;60001;48.404;11.738;2023-05-20T02:15:50;96255.66;;;13.46;77.26
31357;BME280;60001;48.404;11.738;2023-05-20T02:17:22;96264.41;;;13.46;77.36
31357;BME280;60001;48.404;11.738;2023-05-20T02:18:53;96258.31;;;13.51;76.29
31357;BME280;60001;48.404;11.738;2023-05-20T02:20:27;96264.91;;;13.58;76.61
31357;BME280;60001;48.404;11.738;2023-05-20T02:22:01;96254.56;;;13.57;76.40
31357;BME280;60001;48.404;11.738;2023-05-20T02:23:33;96259.59;;;13.53;76.63
31357;BME280;60001;48.404;11.738;2023-05-20T02:25:07;96252.72;;;13.47;77.10
31357;BME280;60001;48.404;11.738;2023-05-20T02:26:39;96262.53;;;13.57;76.56
31357;BME280;60001;48.404;11.738;2023-05-20T02:28:11;96260.63;;;13.62;76.78
31357;BME280;60001;48.404;11.738;2023-05-20T02:29:42;96255.16;;;13.43;77.32
31357;BME280;60001;48.404;11.738;2023-05-20T02:31:14;96255.38;;;13.42;77.15
31357;BME280;60001;48.404;11.738;2023-05-20T02:32:45;96253.28;;;13.49;77.33
31357;BME280;60001;48.404;11.738;2023-05-20T02:34:17;96253.50;;;13.58;76.71
31357;BME280;60001;48.404;11.738;2023-05-20T02:35:48;96260.97;;;13.51;77.19
31357;BME280;60001;48.404;11.738;2023-05-20T02:37:20;96258.53;;;13.54;76.89
31357;BME280;60001;48.404;11.738;2023-05-20T02:38:52;96262.81;;;13.50;77.01
31357;BME280;60001;48.404;11.738;2023-05-20T02:40:27;96261.75;;;13.46;77.54
31357;BME280;60001;48.404;11.738;2023-05-20T02:41:59;96268.91;;;13.46;77.43
31357;BME280;60001;48.404;11.738;2023-05-20T02:43:31;96269.94;;;13.55;76.74
31357;BME280;60001;48.404;11.738;2023-05-20T02:45:04;96264.69;;;13.50;77.27
31357;BME280;60001;48.404;11.738;2023-05-20T02:46:36;96264.41;;;13.51;77.30
31357;BME280;60001;48.404;11.738;2023-05-20T02:48:08;96265.47;;;13.45;77.01
31357;BME280;60001;48.404;11.738;2023-05-20T02:49:40;96267.28;;;13.55;77.04
31357;BME280;60001;48.404;11.738;2023-05-20T02:51:12;96270.22;;;13.58;76.60
31357;BME280;60001;48.404;11.738;2023-05-20T02:52:43;96272.88;;;13.53;77.13
31357;BME280;60001;48.404;11.738;2023-05-20T02:54:15;96269.16;;;13.54;77.02
31357;BME280;60001;48.404;11.738;2023-05-20T02:55:49;96260.13;;;13.60;76.40
31357;BME280;60001;48.404;11.738;2023-05-20T02:57:20;96223.88;;;13.35;76.79
31357;BME280;60001;48.404;11.738;2023-05-20T02:58:53;96251.38;;;13.60;76.73
31357;BME280;60001;48.404;11.738;2023-05-20T03:00:24;96256.94;;;13.63;76.56
31357;BME280;60001;48.404;11.738;2023-05-20T03:01:58;96262.53;;;13.57;76.71
31357;BME280;60001;48.404;11.738;2023-05-20T03:03:29;96253.28;;;13.44;77.59
31357;BME280;60001;48.404;11.738;2023-05-20T03:05:01;96261.97;;;13.55;77.19
31357;BME280;60001;48.404;11.738;2023-05-20T03:06:34;96268.34;;;13.54;76.96
31357;BME280;60001;48.404;11.738;2023-05-20T03:08:08;96260.41;;;13.54;77.29
31357;BME280;60001;48.404;11.738;2023-05-20T03:09:40;96266.75;;;13.58;76.73
31357;BME280;60001;48.404;11.738;2023-05-20T03:11:13;96264.69;;;13.50;77.54
31357;BME280;60001;48.404;11.738;2023-05-20T03:12:45;96266.25;;;13.51;77.22
31357;BME280;60001;48.404;11.738;2023-05-20T03:14:17;96269.16;;;13.54;77.37
31357;BME280;60001;48.404;11.738;2023-05-20T03:15:48;96258.88;;;13.42;77.22
31357;BME280;60001;48.404;11.738;2023-05-20T03:17:19;96268.63;;;13.52;77.01
31357;BME280;60001;48.404;11.738;2023-05-20T03:18:51;96264.41;;;13.51;77.22
31357;BME280;60001;48.404;11.738;2023-05-20T03:20:23;96262.81;;;13.50;77.44
31357;BME280;60001;48.404;11.738;2023-05-20T03:21:56;96260.69;;;13.52;77.26
31357;BME280;60001;48.404;11.738;2023-05-20T03:23:28;96270.50;;;13.57;76.97
31357;BME280;60001;48.404;11.738;2023-05-20T03:25:00;96269.97;;;13.50;77.25
31357;BME280;60001;48.404;11.738;2023-05-20T03:26:33;96267.56;;;13.53;77.64
31357;BME280;60001;48.404;11.738;2023-05-20T03:28:07;96267.84;;;13.52;77.28
31357;BME280;60001;48.404;11.738;2023-05-20T03:29:38;96273.94;;;13.47;77.58
31357;BME280;60001;48.404;11.738;2023-05-20T03:31:10;96230.53;;;13.23;78.20
31357;BME280;60001;48.404;11.738;2023-05-20T03:32:45;96270.50;;;13.52;78.05
31357;BME280;60001;48.404;11.738;2023-05-20T03:34:17;96270.22;;;13.58;77.85
31357;BME280;60001;48.404;11.738;2023-05-20T03:35:48;96268.63;;;13.52;77.69
31357;BME280;60001;48.404;11.738;2023-05-20T03:37:20;96273.16;;;13.47;78.84
31357;BME280;60001;48.404;11.738;2023-05-20T03:38:52;96271.28;;;13.52;78.08
31357;BME280;60001;48.404;11.738;2023-05-20T03:40:24;96272.38;;;13.41;78.21
31357;BME280;60001;48.404;11.738;2023-05-20T03:41:57;96272.63;;;13.50;78.32
31357;BME280;60001;48.404;11.738;2023-05-20T03:43:28;96275.25;;;13.55;77.89
31357;BME280;60001;48.404;11.738;2023-05-20T03:44:59;96280.03;;;13.53;77.63
31357;BME280;60001;48.404;11.738;2023-05-20T03:46:31;96271.81;;;13.54;77.80
31357;BME280;60001;48.404;11.738;2023-05-20T03:48:03;96274.19;;;13.56;77.51
31357;BME280;60001;48.404;11.738;2023-05-20T03:49:36;96277.16;;;13.49;77.88
31357;BME280;60001;48.404;11.738;2023-05-20T03:51:09;96278.47;;;13.47;77.83
31357;BME280;60001;48.404;11.738;2023-05-20T03:52:41;96280.56;;;13.55;77.01
31357;BME280;60001;48.404;11.738;2023-05-20T03:54:12;96281.63;;;13.49;77.63
31357;BME280;60001;48.404;11.738;2023-05-20T03:55:43;96277.66;;;13.46;77.69
31357;BME280;60001;48.404;11.738;2023-05-20T03:57:17;96282.13;;;13.56;77.13
31357;BME280;60001;48.404;11.738;2023-05-20T03:58:49;96277.38;;;13.58;77.30
31357;BME280;60001;48.404;11.738;2023-05-20T04:00:20;96278.69;;;13.60;77.09
31357;BME280;60001;48.404;11.738;2023-05-20T04:01:52;96274.75;;;13.48;77.23
31357;BME280;60001;48.404;11.738;2023-05-20T04:03:24;96276.31;;;13.54;77.06
31357;BME280;60001;48.404;11.738;2023-05-20T04:04:55;96276.31;;;13.59;77.15
31357;BME280;60001;48.404;11.738;2023-05-20T04:06:27;96237.94;;;13.26;77.10
31357;BME280;60001;48.404;11.738;2023-05-20T04:07:57;96276.03;;;13.55;76.74
31357;BME280;60001;48.404;11.738;2023-05-20T04:09:30;96286.91;;;13.59;76.85
31357;BME280;60001;48.404;11.738;2023-05-20T04:11:01;96281.63;;;13.54;76.93
31357;BME280;60001;48.404;11.738;2023-05-20T04:12:34;96278.72;;;13.50;77.59
31357;BME280;60001;48.404;11.738;2023-05-20T04:14:07;96278.97;;;13.49;77.68
31357;BME280;60001;48.404;11.738;2023-05-20T04:15:40;96266.28;;;13.46;77.47
31357;BME280;60001;48.404;11.738;2023-05-20T04:17:12;96274.75;;;13.48;77.90
31357;BME280;60001;48.404;11.738;2023-05-20T04:18:44;96271.03;;;13.49;77.47
31357;BME280;60001;48.404;11.738;2023-05-20T04:20:18;96265.19;;;13.52;77.17
31357;BME280;60001;48.404;11.738;2023-05-20T04:21:49;96272.59;;;13.55;77.44
31357;BME280;60001;48.404;11.738;2023-05-20T04:23:20;96275.50;;;13.58;77.06
31357;BME280;60001;48.404;11.738;2023-05-20T04:24:52;96275.78;;;13.57;77.47
31357;BME280;60001;48.404;11.738;2023-05-20T04:26:23;96280.28;;;13.61;76.91
31357;BME280;60001;48.404;11.738;2023-05-20T04:27:56;96277.34;;;13.63;77.31
31357;BME280;60001;48.404;11.738;2023-05-20T04:29:29;96273.88;;;13.73;76.94
31357;BME280;60001;48.404;11.738;2023-05-20T04:31:04;96266.47;;;13.64;77.12
31357;BME280;60001;48.404;11.738;2023-05-20T04:32:35;96271.44;;;13.76;76.92
31357;BME280;60001;48.404;11.738;2023-05-20T04:34:06;96274.88;;;13.82;77.23
31357;BME280;60001;48.404;11.738;2023-05-20T04:35:38;96280.53;;;13.65;77.73
31357;BME280;60001;48.404;11.738;2023-05-20T04:37:11;96274.38;;;13.75;77.88
31357;BME280;60001;48.404;11.738;2023-05-20T04:38:43;96267.44;;;13.84;76.44
31357;BME280;60001;48.404;11.738;2023-05-20T04:40:16;96280.97;;;13.82;76.53
31357;BME280;60001;48.404;11.738;2023-05-20T04:41:48;96276.47;;;13.83;77.00
31357;BME280;60001;48.404;11.738;2023-05-20T04:43:20;96270.63;;;13.86;77.01
31357;BME280;60001;48.404;11.738;2023-05-20T04:44:52;96275.41;;;13.84;77.15
31357;BME280;60001;48.404;11.738;2023-05-20T04:46:24;96279.97;;;13.73;77.66
31357;BME280;60001;48.404;11.738;2023-05-20T04:47:56;96277.25;;;13.83;76.74
31357;BME280;60001;48.404;11.738;2023-05-20T04:49:27;96275.66;;;13.92;76.75
31357;BME280;60001;48.404;11.738;2023-05-20T04:50:59;96265.31;;;13.86;76.92
31357;BME280;60001;48.404;11.738;2023-05-20T04:52:31;96271.41;;;13.91;76.73
31357;BME280;60001;48.404;11.738;2023-05-20T04:54:02;96274.56;;;13.93;76.63
31357;BME280;60001;48.404;11.738;2023-05-20T04:55:34;96265.81;;;13.93;76.58
31357;BME280;60001;48.404;11.738;2023-05-20T04:57:06;96270.56;;;13.96;76.26
31357;BME280;60001;48.404;11.738;2023-05-20T04:58:39;96268.97;;;13.95;76.39
31357;BME280;60001;48.404;11.738;2023-05-20T05:00:12;96268.75;;;13.86;77.12
31357;BME280;60001;48.404;11.738;2023-05-20T05:01:44;96267.97;;;13.91;77.29
31357;BME280;60001;48.404;11.738;2023-05-20T05:03:16;96267.69;;;13.92;77.03
31357;BME280;60001;48.404;11.738;2023-05-20T05:04:48;96257.88;;;13.88;77.00
31357;BME280;60001;48.404;11.738;2023-05-20T05:06:20;96270.25;;;14.03;77.02
31357;BME280;60001;48.404;11.738;2023-05-20T05:07:52;96266.28;;;14.05;77.39
31357;BME280;60001;48.404;11.738;2023-05-20T05:09:24;96264.91;;;14.13;76.83
31357;BME280;60001;48.404;11.738;2023-05-20T05:10:55;96260.69;;;14.12;77.21
31357;BME280;60001;48.404;11.738;2023-05-20T05:12:26;96260.69;;;14.07;78.28
31357;BME280;60001;48.404;11.738;2023-05-20T05:13:59;96261.47;;;14.12;77.34
31357;BME280;60001;48.404;11.738;2023-05-20T05:15:31;96261.13;;;14.24;76.84
31357;BME280;60001;48.404;11.738;2023-05-20T05:17:02;96260.84;;;14.25;76.79
31357;BME280;60001;48.404;11.738;2023-05-20T05:18:34;96251.06;;;14.21;76.66
31357;BME280;60001;48.404;11.738;2023-05-20T05:20:07;96263.88;;;14.09;78.00
31357;BME280;60001;48.404;11.738;2023-05-20T05:21:39;96251.06;;;14.21;76.47
31357;BME280;60001;48.404;11.738;2023-05-20T05:23:10;96241.06;;;14.03;76.85
31357;BME280;60001;48.404;11.738;2023-05-20T05:24:42;96245.19;;;14.24;76.53
31357;BME280;60001;48.404;11.738;2023-05-20T05:26:14;96250.25;;;14.20;76.86
31357;BME280;60001;48.404;11.738;2023-05-20T05:27:45;96247.03;;;14.23;76.59
31357;BME280;60001;48.404;11.738;2023-05-20T05:29:20;96245.97;;;14.24;76.63
31357;BME280;60001;48.404;11.738;2023-05-20T05:30:53;96252.53;;;14.37;75.97
31357;BME280;60001;48.404;11.738;2023-05-20T05:32:25;96246.03;;;14.14;76.48
31357;BME280;60001;48.404;11.738;2023-05-20T05:33:57;96244.19;;;14.15;76.56
31357;BME280;60001;48.404;11.738;2023-05-20T05:35:29;96258.63;;;14.38;75.73
31357;BME280;60001;48.404;11.738;2023-05-20T05:37:01;96247.81;;;14.29;76.72
31357;BME280;60001;48.404;11.738;2023-05-20T05:38:33;96247.03;;;14.23;76.42
31357;BME280;60001;48.404;11.738;2023-05-20T05:40:06;96243.00;;;14.31;76.01
31357;BME280;60001;48.404;11.738;2023-05-20T05:41:38;96252.50;;;14.42;75.77
31357;BME280;60001;48.404;11.738;2023-05-20T05:43:10;96242.38;;;14.49;75.45
31357;BME280;60001;48.404;11.738;2023-05-20T05:44:43;96239.69;;;14.55;74.87
31357;BME280;60001;48.404;11.738;2023-05-20T05:46:15;96241.81;;;14.52;75.26
31357;BME280;60001;48.404;11.738;2023-05-20T05:47:47;96249.53;;;14.54;75.56
31357;BME280;60001;48.404;11.738;2023-05-20T05:49:18;96255.53;;;14.65;75.17
31357;BME280;60001;48.404;11.738;2023-05-20T05:50:50;96255.25;;;14.66;74.54
31357;BME280;60001;48.404;11.738;2023-05-20T05:52:22;96256.53;;;14.74;74.78
31357;BME280;60001;48.404;11.738;2023-05-20T05:53:53;96234.69;;;14.48;75.25
31357;BME280;60001;48.404;11.738;2023-05-20T05:55:24;96258.38;;;14.73;74.21
31357;BME280;60001;48.404;11.738;2023-05-20T05:56:55;96265.25;;;14.79;74.47
31357;BME280;60001;48.404;11.738;2023-05-20T05:58:27;96258.28;;;14.89;73.91
31357;BME280;60001;48.404;11.738;2023-05-20T06:00:00;96258.81;;;14.86;74.75
31357;BME280;60001;48.404;11.738;2023-05-20T06:01:31;96265.41;;;14.93;73.72
31357;BME280;60001;48.404;11.738;2023-05-20T06:03:03;96260.34;;;14.97;73.79
31357;BME280;60001;48.404;11.738;2023-05-20T06:04:35;96265.88;;;15.00;73.91
31357;BME280;60001;48.404;11.738;2023-05-20T06:06:06;96265.41;;;14.93;73.95
31357;BME280;60001;48.404;11.738;2023-05-20T06:07:37;96254.16;;;15.01;73.21
31357;BME280;60001;48.404;11.738;2023-05-20T06:09:09;96254.59;;;14.85;73.21
31357;BME280;60001;48.404;11.738;2023-05-20T06:10:46;96253.59;;;14.75;74.34
31357;BME280;60001;48.404;11.738;2023-05-20T06:12:18;96249.47;;;14.59;74.46
31357;BME280;60001;48.404;11.738;2023-05-20T06:13:50;96253.69;;;14.94;74.38
31357;BME280;60001;48.404;11.738;2023-05-20T06:15:23;96258.88;;;15.10;73.39
31357;BME280;60001;48.404;11.738;2023-05-20T06:16:53;96248.94;;;14.91;73.48
31357;BME280;60001;48.404;11.738;2023-05-20T06:18:25;96255.47;;;15.04;73.08
31357;BME280;60001;48.404;11.738;2023-05-20T06:19:57;96258.00;;;14.90;73.85
31357;BME280;60001;48.404;11.738;2023-05-20T06:21:29;96259.47;;;15.01;73.87
31357;BME280;60001;48.404;11.738;2023-05-20T06:23:01;96256.78;;;15.06;73.46
31357;BME280;60001;48.404;11.738;2023-05-20T06:24:33;96253.50;;;15.15;73.53
31357;BME280;60001;48.404;11.738;2023-05-20T06:26:04;96257.97;;;15.19;72.64
31357;BME280;60001;48.404;11.738;2023-05-20T06:27:36;96253.28;;;15.11;72.59
31357;BME280;60001;48.404;11.738;2023-05-20T06:29:08;96258.34;;;15.07;73.37
31357;BME280;60001;48.404;11.738;2023-05-20T06:30:41;96252.38;;;15.21;72.79
31357;BME280;60001;48.404;11.738;2023-05-20T06:32:13;96263.16;;;15.05;73.90
31357;BME280;60001;48.404;11.738;2023-05-20T06:33:45;96238.31;;;15.15;73.41
31357;BME280;60001;48.404;11.738;2023-05-20T18:13:58;95973.41;;;20.33;55.03
31357;BME280;60001;48.404;11.738;2023-05-20T18:15:30;95994.22;;;20.45;54.63
31357;BME280;60001;48.404;11.738;2023-05-20T18:17:02;95999.56;;;20.36;55.57
31357;BME280;60001;48.404;11.738;2023-05-20T18:18:34;95996.41;;;20.34;55.84
31357;BME280;60001;48.404;11.738;2023-05-20T18:20:06;96006.50;;;20.37;55.24
31357;BME280;60001;48.404;11.738;2023-05-20T18:21:40;95999.72;;;20.40;55.34
31357;BME280;60001;48.404;11.738;2023-05-20T18:23:11;95995.19;;;20.32;56.06
31357;BME280;60001;48.404;11.738;2023-05-20T18:24:43;95998.97;;;20.31;55.96
31357;BME280;60001;48.404;11.738;2023-05-20T18:26:16;96007.44;;;20.41;56.23
31357;BME280;60001;48.404;11.738;2023-05-20T18:27:47;96005.53;;;20.42;55.57
31357;BME280;60001;48.404;11.738;2023-05-20T18:29:20;96002.78;;;20.21;56.37
31357;BME280;60001;48.404;11.738;2023-05-20T18:30:54;96004.81;;;20.24;57.16
31357;BME280;60001;48.404;11.738;2023-05-20T18:32:26;96010.66;;;20.26;57.27
31357;BME280;60001;48.404;11.738;2023-05-20T18:33:58;96004.63;;;20.29;57.12
31357;BME280;60001;48.404;11.738;2023-05-20T18:35:31;96003.09;;;20.19;57.79
31357;BME280;60001;48.404;11.738;2023-05-20T18:37:03;95998.69;;;20.15;57.51
31357;BME280;60001;48.404;11.738;2023-05-20T18:38:36;96003.72;;;20.25;57.67
31357;BME280;60001;48.404;11.738;2023-05-20T18:40:08;95999.66;;;20.10;58.42
31357;BME280;60001;48.404;11.738;2023-05-20T18:41:40;96003.59;;;20.13;57.89
31357;BME280;60001;48.404;11.738;2023-05-20T18:43:12;96008.00;;;20.17;57.89
31357;BME280;60001;48.404;11.738;2023-05-20T18:44:45;95993.47;;;20.18;57.99
31357;BME280;60001;48.404;11.738;2023-05-20T18:46:17;96001.72;;;20.05;58.90
31357;BME280;60001;48.404;11.738;2023-05-20T18:47:51;96003.00;;;19.98;59.15
31357;BME280;60001;48.404;11.738;2023-05-20T18:49:23;95991.66;;;19.84;59.84
31357;BME280;60001;48.404;11.738;2023-05-20T18:50:54;95995.13;;;19.93;59.75
31357;BME280;60001;48.404;11.738;2023-05-20T18:52:27;95999.38;;;20.03;59.03
31357;BME280;60001;48.404;11.738;2023-05-20T18:53:59;95998.56;;;20.03;59.59
31357;BME280;60001;48.404;11.738;2023-05-20T18:55:31;95983.47;;;19.81;59.66
31357;BME280;60001;48.404;11.738;2023-05-20T18:57:03;95997.31;;;20.00;59.58
31357;BME280;60001;48.404;11.738;2023-05-20T18:58:35;95997.16;;;19.96;59.30
31357;BME280;60001;48.404;11.738;2023-05-20T19:00:10;95999.69;;;19.93;59.79
31357;BME280;60001;48.404;11.738;2023-05-20T19:01:42;95996.72;;;19.77;60.10
31357;BME280;60001;48.404;11.738;2023-05-20T19:03:14;95997.22;;;19.62;60.62
31357;BME280;60001;48.404;11.738;2023-05-20T19:04:46;95994.19;;;19.72;60.65
31357;BME280;60001;48.404;11.738;2023-05-20T19:06:18;96002.09;;;19.77;60.95
31357;BME280;60001;48.404;11.738;2023-05-20T19:07:51;96002.53;;;19.79;60.89
31357;BME280;60001;48.404;11.738;2023-05-20T19:09:23;96000.97;;;19.78;60.40
31357;BME280;60001;48.404;11.738;2023-05-20T19:10:55;95999.88;;;19.70;60.83
31357;BME280;60001;48.404;11.738;2023-05-20T19:12:26;96006.97;;;19.84;60.38
31357;BME280;60001;48.404;11.738;2023-05-20T19:13:58;96006.00;;;19.80;60.34
31357;BME280;60001;48.404;11.738;2023-05-20T19:15:32;95991.84;;;19.79;60.48
31357;BME280;60001;48.404;11.738;2023-05-20T19:17:04;95999.72;;;19.76;60.99
31357;BME280;60001;48.404;11.738;2023-05-20T19:18:36;96012.97;;;19.72;60.79
31357;BME280;60001;48.404;11.738;2023-05-20T19:20:08;96003.81;;;19.73;60.72
31357;BME280;60001;48.404;11.738;2023-05-20T19:21:40;96005.41;;;19.65;61.21
31357;BME280;60001;48.404;11.738;2023-05-20T19:23:13;96004.16;;;19.63;61.62
31357;BME280;60001;48.404;11.738;2023-05-20T19:24:45;96017.66;;;19.49;61.80
31357;BME280;60001;48.404;11.738;2023-05-20T19:26:17;96014.66;;;19.51;61.68
31357;BME280;60001;48.404;11.738;2023-05-20T19:27:48;96011.88;;;19.64;61.26
31357;BME280;60001;48.404;11.738;2023-05-20T19:29:21;96007.75;;;19.50;62.24
31357;BME280;60001;48.404;11.738;2023-05-20T19:30:54;96005.38;;;19.48;62.06
31357;BME280;60001;48.404;11.738;2023-05-20T19:32:25;96010.09;;;19.51;61.99
31357;BME280;60001;48.404;11.738;2023-05-20T19:33:57;96011.34;;;19.45;62.18
31357;BME280;60001;48.404;11.738;2023-05-20T19:35:29;96017.50;;;19.45;62.46
31357;BME280;60001;48.404;11.738;2023-05-20T19:37:01;96013.72;;;19.47;62.35
31357;BME280;60001;48.404;11.738;2023-05-20T19:38:33;96010.56;;;19.53;61.92
31357;BME280;60001;48.404;11.738;2023-05-20T19:40:06;96026.03;;;19.56;61.98